createdAt,value
2017-11-29T00:01:40.981Z,3.00
2017-11-29T00:11:16.927Z,3.00
2017-11-29T00:20:54.106Z,3.00
2017-11-29T00:30:29.980Z,3.00
2017-11-29T00:40:07.500Z,3.00
2017-11-29T00:49:43.429Z,3.00
2017-11-29T00:59:19.258Z,3.00
2017-11-29T01:08:55.556Z,3.00
2017-11-29T01:18:31.750Z,3.00
2017-11-29T01:28:08.855Z,3.00
2017-11-29T01:37:44.910Z,3.00
2017-11-29T01:47:21.420Z,3.00
2017-11-29T01:56:57.766Z,3.00
2017-11-29T02:06:34.399Z,3.00
2017-11-29T02:16:10.630Z,2.99
2017-11-29T02:25:46.960Z,3.00
2017-11-29T02:35:23.111Z,2.99
2017-11-29T02:44:59.871Z,2.99
2017-11-29T02:54:36.121Z,2.99
2017-11-29T03:04:12.253Z,2.99
2017-11-29T03:13:48.895Z,2.99
2017-11-29T03:23:24.934Z,2.99
2017-11-29T03:33:02.249Z,3.00
2017-11-29T03:42:39.537Z,2.99
2017-11-29T03:52:15.989Z,3.00
2017-11-29T04:01:52.718Z,2.99
2017-11-29T04:11:28.952Z,2.99
2017-11-29T04:21:04.759Z,2.99
2017-11-29T04:30:42.300Z,2.99
2017-11-29T04:40:18.654Z,2.99
2017-11-29T04:49:54.800Z,2.99
2017-11-29T04:59:32.082Z,2.99
2017-11-29T05:09:08.485Z,2.99
2017-11-29T05:18:44.699Z,2.99
2017-11-29T05:28:21.946Z,2.99
2017-11-29T05:37:58.204Z,2.99
2017-11-29T05:47:33.833Z,2.99
2017-11-29T05:57:11.235Z,2.99
2017-11-29T06:06:48.244Z,2.99
2017-11-29T06:16:24.566Z,2.99
2017-11-29T06:26:00.891Z,2.99
2017-11-29T06:35:36.698Z,2.99
2017-11-29T06:45:13.789Z,2.99
2017-11-29T06:54:51.589Z,2.99
2017-11-29T07:04:28.154Z,3.00
2017-11-29T07:14:04.179Z,3.01
2017-11-29T07:23:40.501Z,3.02
2017-11-29T07:33:16.988Z,3.03
2017-11-29T07:42:53.155Z,3.05
2017-11-29T07:52:29.576Z,3.03
2017-11-29T08:02:06.188Z,3.04
2017-11-29T08:11:42.537Z,3.03
2017-11-29T08:21:18.702Z,3.05
2017-11-29T08:30:55.535Z,3.05
2017-11-29T08:40:32.352Z,3.04
2017-11-29T08:50:09.355Z,3.05
2017-11-29T08:59:45.474Z,3.03
2017-11-29T09:09:20.828Z,3.06
2017-11-29T09:18:56.361Z,3.05
2017-11-29T09:28:33.207Z,3.05
2017-11-29T09:38:09.851Z,3.05
2017-11-29T09:47:46.824Z,3.05
2017-11-29T09:57:23.191Z,3.06
2017-11-29T10:06:59.815Z,3.06
2017-11-29T10:16:35.967Z,3.05
2017-11-29T10:26:12.013Z,3.05
2017-11-29T10:35:47.970Z,3.06
2017-11-29T10:45:23.964Z,3.05
2017-11-29T10:54:59.460Z,3.06
2017-11-29T11:04:35.620Z,3.06
2017-11-29T11:14:11.860Z,3.06
2017-11-29T11:23:47.824Z,3.06
2017-11-29T11:33:23.897Z,3.07
2017-11-29T11:43:01.340Z,3.06
2017-11-29T11:52:36.719Z,3.06
2017-11-29T12:02:14.122Z,3.06
2017-11-29T12:11:50.068Z,3.06
2017-11-29T12:21:25.899Z,3.07
2017-11-29T12:31:02.520Z,3.06
2017-11-29T12:40:38.804Z,3.06
2017-11-29T12:50:18.860Z,3.07
2017-11-29T12:59:48.923Z,3.06
2017-11-29T13:09:24.017Z,3.06
2017-11-29T13:19:00.714Z,3.06
2017-11-29T13:28:36.378Z,3.06
2017-11-29T13:38:16.068Z,3.06
2017-11-29T13:47:45.852Z,3.07
2017-11-29T13:57:21.492Z,3.06
2017-11-29T14:06:57.289Z,3.07
2017-11-29T14:16:32.947Z,3.06
2017-11-29T14:26:08.253Z,3.06
2017-11-29T14:35:44.986Z,3.05
2017-11-29T14:45:24.566Z,3.05
2017-11-29T14:54:54.382Z,3.05
2017-11-29T15:04:29.927Z,3.05
2017-11-29T15:14:05.356Z,3.04
2017-11-29T15:23:40.956Z,3.04
2017-11-29T15:33:16.653Z,3.03
2017-11-29T15:42:53.432Z,3.03
2017-11-29T15:52:28.463Z,3.03
2017-11-29T16:02:05.205Z,3.03
2017-11-29T16:11:40.715Z,3.03
2017-11-29T16:21:16.840Z,3.03
2017-11-29T16:30:52.362Z,3.03
2017-11-29T16:40:29.328Z,3.03
2017-11-29T16:50:05.281Z,3.03
2017-11-29T16:59:41.315Z,3.03
2017-11-29T17:09:17.177Z,3.03
2017-11-29T17:18:53.708Z,3.02
2017-11-29T17:28:29.427Z,3.02
2017-11-29T17:38:06.622Z,3.03
2017-11-29T17:47:42.907Z,3.02
2017-11-29T17:57:19.149Z,3.03
2017-11-29T18:06:55.718Z,3.03
2017-11-29T18:16:32.039Z,3.03
2017-11-29T18:26:08.574Z,3.03
2017-11-29T18:35:44.312Z,3.02
2017-11-29T18:45:20.531Z,3.02
2017-11-29T18:54:56.578Z,3.02
2017-11-29T19:04:32.812Z,3.03
2017-11-29T19:14:08.855Z,3.02
2017-11-29T19:23:45.022Z,3.02
2017-11-29T19:33:21.113Z,3.02
2017-11-29T19:42:56.738Z,3.02
2017-11-29T19:52:32.733Z,3.02
2017-11-29T20:02:08.636Z,3.02
2017-11-29T20:11:44.464Z,3.02
2017-11-29T20:21:20.096Z,3.02
2017-11-29T20:30:56.209Z,3.01
2017-11-29T20:40:32.693Z,3.02
2017-11-29T20:50:09.125Z,3.02
2017-11-29T20:59:45.479Z,3.01
2017-11-29T21:09:21.337Z,3.01
2017-11-29T21:18:58.344Z,3.01
2017-11-29T21:28:34.797Z,3.01
2017-11-29T21:38:11.034Z,3.01
2017-11-29T21:47:47.017Z,3.01
2017-11-29T21:57:22.940Z,3.01
2017-11-29T22:06:59.171Z,3.01
2017-11-29T22:16:35.335Z,3.01
2017-11-29T22:26:11.243Z,3.01
2017-11-29T22:35:47.558Z,3.01
2017-11-29T22:45:23.609Z,3.01
2017-11-29T22:54:59.350Z,3.01
2017-11-29T23:04:35.364Z,3.01
2017-11-29T23:14:11.713Z,3.01
2017-11-29T23:23:48.887Z,3.01
2017-11-29T23:33:25.014Z,3.01
2017-11-29T23:43:01.410Z,3.01
2017-11-29T23:52:37.551Z,3.01
